sensor_id;sensor_type;location;lat;lon;timestamp;P1;durP1;ratioP1;P2;durP2;ratioP2
57295;SDS011;43146;50.976;18.216;2024-02-15T00:01:34;58.10;;;29.70;;
57295;SDS011;43146;50.976;18.216;2024-02-15T00:03:59;41.00;;;22.00;;
57295;SDS011;43146;50.976;18.216;2024-02-15T00:06:25;67.10;;;44.80;;
57295;SDS011;43146;50.976;18.216;2024-02-15T00:08:50;43.50;;;23.50;;
57295;SDS011;43146;50.976;18.216;2024-02-15T00:11:17;44.60;;;24.70;;
57295;SDS011;43146;50.976;18.216;2024-02-15T00:13:43;39.20;;;20.20;;
57295;SDS011;43146;50.976;18.216;2024-02-15T00:16:13;77.70;;;45.80;;
57295;SDS011;43146;50.976;18.216;2024-02-15T00:18:39;65.70;;;33.10;;
57295;SDS011;43146;50.976;18.216;2024-02-15T00:21:05;134.80;;;84.60;;
57295;SDS011;43146;50.976;18.216;2024-02-15T00:23:31;195.40;;;125.00;;
57295;SDS011;43146;50.976;18.216;2024-02-15T00:25:57;354.10;;;181.30;;
57295;SDS011;43146;50.976;18.216;2024-02-15T00:28:23;160.40;;;76.50;;
57295;SDS011;43146;50.976;18.216;2024-02-15T00:30:49;194.80;;;120.70;;
57295;SDS011;43146;50.976;18.216;2024-02-15T00:33:15;107.00;;;61.40;;
57295;SDS011;43146;50.976;18.216;2024-02-15T00:35:41;187.10;;;98.80;;
57295;SDS011;43146;50.976;18.216;2024-02-15T00:38:07;111.60;;;57.00;;
57295;SDS011;43146;50.976;18.216;2024-02-15T00:40:33;146.00;;;75.50;;
57295;SDS011;43146;50.976;18.216;2024-02-15T00:42:58;61.00;;;33.30;;
57295;SDS011;43146;50.976;18.216;2024-02-15T00:45:24;126.80;;;44.40;;
57295;SDS011;43146;50.976;18.216;2024-02-15T00:47:50;69.20;;;27.10;;
57295;SDS011;43146;50.976;18.216;2024-02-15T00:50:15;55.50;;;26.50;;
57295;SDS011;43146;50.976;18.216;2024-02-15T00:52:41;49.60;;;24.40;;
57295;SDS011;43146;50.976;18.216;2024-02-15T00:55:07;41.60;;;23.50;;
57295;SDS011;43146;50.976;18.216;2024-02-15T00:57:33;84.90;;;59.10;;
57295;SDS011;43146;50.976;18.216;2024-02-15T00:59:58;61.10;;;39.50;;
57295;SDS011;43146;50.976;18.216;2024-02-15T01:02:25;142.50;;;99.70;;
57295;SDS011;43146;50.976;18.216;2024-02-15T01:04:51;49.80;;;25.10;;
57295;SDS011;43146;50.976;18.216;2024-02-15T01:07:18;55.00;;;29.60;;
57295;SDS011;43146;50.976;18.216;2024-02-15T01:09:44;60.30;;;34.80;;
57295;SDS011;43146;50.976;18.216;2024-02-15T01:12:10;49.50;;;23.60;;
57295;SDS011;43146;50.976;18.216;2024-02-15T01:14:36;68.30;;;31.80;;
57295;SDS011;43146;50.976;18.216;2024-02-15T01:17:02;40.30;;;20.20;;
57295;SDS011;43146;50.976;18.216;2024-02-15T01:19:28;53.30;;;28.60;;
57295;SDS011;43146;50.976;18.216;2024-02-15T01:21:54;61.60;;;27.80;;
57295;SDS011;43146;50.976;18.216;2024-02-15T01:24:19;75.10;;;33.20;;
57295;SDS011;43146;50.976;18.216;2024-02-15T01:26:45;80.30;;;36.70;;
57295;SDS011;43146;50.976;18.216;2024-02-15T01:29:13;51.30;;;24.20;;
57295;SDS011;43146;50.976;18.216;2024-02-15T01:31:38;50.50;;;24.30;;
57295;SDS011;43146;50.976;18.216;2024-02-15T01:34:04;40.30;;;20.30;;
57295;SDS011;43146;50.976;18.216;2024-02-15T01:36:30;34.40;;;17.40;;
57295;SDS011;43146;50.976;18.216;2024-02-15T01:38:56;41.80;;;18.10;;
57295;SDS011;43146;50.976;18.216;2024-02-15T01:41:21;39.90;;;20.00;;
57295;SDS011;43146;50.976;18.216;2024-02-15T01:43:47;46.90;;;24.40;;
57295;SDS011;43146;50.976;18.216;2024-02-15T01:46:13;49.00;;;23.30;;
57295;SDS011;43146;50.976;18.216;2024-02-15T01:48:40;38.80;;;20.30;;
57295;SDS011;43146;50.976;18.216;2024-02-15T01:51:09;32.90;;;17.70;;
57295;SDS011;43146;50.976;18.216;2024-02-15T01:53:37;38.30;;;17.50;;
57295;SDS011;43146;50.976;18.216;2024-02-15T01:56:03;37.80;;;17.50;;
57295;SDS011;43146;50.976;18.216;2024-02-15T01:58:29;42.60;;;21.80;;
57295;SDS011;43146;50.976;18.216;2024-02-15T02:00:57;36.90;;;16.90;;
57295;SDS011;43146;50.976;18.216;2024-02-15T02:03:23;34.70;;;17.10;;
57295;SDS011;43146;50.976;18.216;2024-02-15T02:05:49;32.30;;;16.90;;
57295;SDS011;43146;50.976;18.216;2024-02-15T02:08:15;35.10;;;16.90;;
57295;SDS011;43146;50.976;18.216;2024-02-15T02:10:40;33.40;;;16.20;;
57295;SDS011;43146;50.976;18.216;2024-02-15T02:13:06;34.10;;;16.30;;
57295;SDS011;43146;50.976;18.216;2024-02-15T02:15:32;34.90;;;16.80;;
57295;SDS011;43146;50.976;18.216;2024-02-15T02:18:00;31.60;;;15.90;;
57295;SDS011;43146;50.976;18.216;2024-02-15T02:20:26;34.80;;;15.80;;
57295;SDS011;43146;50.976;18.216;2024-02-15T02:22:53;35.30;;;16.60;;
57295;SDS011;43146;50.976;18.216;2024-02-15T02:25:24;33.90;;;15.90;;
57295;SDS011;43146;50.976;18.216;2024-02-15T02:27:53;42.00;;;20.50;;
57295;SDS011;43146;50.976;18.216;2024-02-15T02:30:20;37.60;;;18.00;;
57295;SDS011;43146;50.976;18.216;2024-02-15T02:32:47;36.20;;;16.80;;
57295;SDS011;43146;50.976;18.216;2024-02-15T02:35:13;32.00;;;16.90;;
57295;SDS011;43146;50.976;18.216;2024-02-15T02:37:41;46.20;;;23.70;;
57295;SDS011;43146;50.976;18.216;2024-02-15T02:40:07;34.80;;;18.30;;
57295;SDS011;43146;50.976;18.216;2024-02-15T02:42:53;38.30;;;17.90;;
57295;SDS011;43146;50.976;18.216;2024-02-15T02:45:25;34.70;;;17.00;;
57295;SDS011;43146;50.976;18.216;2024-02-15T02:47:51;37.60;;;18.70;;
57295;SDS011;43146;50.976;18.216;2024-02-15T02:50:17;45.30;;;21.60;;
57295;SDS011;43146;50.976;18.216;2024-02-15T02:52:43;43.20;;;19.50;;
57295;SDS011;43146;50.976;18.216;2024-02-15T02:55:09;43.50;;;21.60;;
57295;SDS011;43146;50.976;18.216;2024-02-15T02:57:36;36.20;;;17.90;;
57295;SDS011;43146;50.976;18.216;2024-02-15T03:00:07;32.60;;;16.60;;
57295;SDS011;43146;50.976;18.216;2024-02-15T03:02:43;33.90;;;16.50;;
57295;SDS011;43146;50.976;18.216;2024-02-15T03:05:09;35.30;;;17.70;;
57295;SDS011;43146;50.976;18.216;2024-02-15T03:07:38;38.90;;;17.80;;
57295;SDS011;43146;50.976;18.216;2024-02-15T03:10:08;34.40;;;17.50;;
57295;SDS011;43146;50.976;18.216;2024-02-15T03:12:37;32.90;;;17.00;;
57295;SDS011;43146;50.976;18.216;2024-02-15T03:15:03;33.40;;;15.50;;
57295;SDS011;43146;50.976;18.216;2024-02-15T03:17:29;33.00;;;15.90;;
57295;SDS011;43146;50.976;18.216;2024-02-15T03:19:57;30.70;;;15.30;;
57295;SDS011;43146;50.976;18.216;2024-02-15T03:22:24;33.90;;;16.10;;
57295;SDS011;43146;50.976;18.216;2024-02-15T03:24:50;34.00;;;15.50;;
57295;SDS011;43146;50.976;18.216;2024-02-15T03:27:16;33.70;;;16.70;;
57295;SDS011;43146;50.976;18.216;2024-02-15T03:29:41;35.40;;;17.10;;
57295;SDS011;43146;50.976;18.216;2024-02-15T03:32:07;31.00;;;16.30;;
57295;SDS011;43146;50.976;18.216;2024-02-15T03:34:36;31.20;;;16.30;;
57295;SDS011;43146;50.976;18.216;2024-02-15T03:37:02;33.90;;;16.20;;
57295;SDS011;43146;50.976;18.216;2024-02-15T03:39:29;31.70;;;15.50;;
57295;SDS011;43146;50.976;18.216;2024-02-15T03:41:55;34.80;;;17.20;;
57295;SDS011;43146;50.976;18.216;2024-02-15T03:44:22;30.50;;;15.80;;
57295;SDS011;43146;50.976;18.216;2024-02-15T03:46:51;33.00;;;16.50;;
57295;SDS011;43146;50.976;18.216;2024-02-15T03:49:20;34.20;;;16.70;;
57295;SDS011;43146;50.976;18.216;2024-02-15T03:51:47;34.00;;;17.40;;
57295;SDS011;43146;50.976;18.216;2024-02-15T03:54:14;37.10;;;18.70;;
57295;SDS011;43146;50.976;18.216;2024-02-15T03:56:46;35.70;;;18.30;;
57295;SDS011;43146;50.976;18.216;2024-02-15T03:59:12;34.80;;;17.90;;
57295;SDS011;43146;50.976;18.216;2024-02-15T04:01:38;34.00;;;17.20;;
57295;SDS011;43146;50.976;18.216;2024-02-15T04:04:05;36.00;;;18.60;;
57295;SDS011;43146;50.976;18.216;2024-02-15T04:06:30;33.90;;;18.30;;
57295;SDS011;43146;50.976;18.216;2024-02-15T04:08:58;36.20;;;17.50;;
57295;SDS011;43146;50.976;18.216;2024-02-15T04:11:25;32.90;;;18.00;;
57295;SDS011;43146;50.976;18.216;2024-02-15T04:13:50;38.90;;;19.00;;
57295;SDS011;43146;50.976;18.216;2024-02-15T04:16:16;36.30;;;18.10;;
57295;SDS011;43146;50.976;18.216;2024-02-15T04:18:43;38.90;;;19.60;;
57295;SDS011;43146;50.976;18.216;2024-02-15T04:21:12;37.50;;;19.40;;
57295;SDS011;43146;50.976;18.216;2024-02-15T04:23:38;34.50;;;17.90;;
57295;SDS011;43146;50.976;18.216;2024-02-15T04:26:04;36.90;;;17.00;;
57295;SDS011;43146;50.976;18.216;2024-02-15T04:28:30;34.60;;;16.80;;
57295;SDS011;43146;50.976;18.216;2024-02-15T04:30:56;33.50;;;16.30;;
57295;SDS011;43146;50.976;18.216;2024-02-15T04:33:21;35.30;;;16.60;;
57295;SDS011;43146;50.976;18.216;2024-02-15T04:35:47;34.20;;;16.50;;
57295;SDS011;43146;50.976;18.216;2024-02-15T04:38:15;33.00;;;16.20;;
57295;SDS011;43146;50.976;18.216;2024-02-15T04:40:40;31.10;;;15.70;;
57295;SDS011;43146;50.976;18.216;2024-02-15T04:43:06;31.10;;;16.40;;
57295;SDS011;43146;50.976;18.216;2024-02-15T04:45:34;120.40;;;81.90;;
57295;SDS011;43146;50.976;18.216;2024-02-15T04:48:01;60.90;;;51.50;;
57295;SDS011;43146;50.976;18.216;2024-02-15T04:50:28;32.70;;;20.10;;
57295;SDS011;43146;50.976;18.216;2024-02-15T04:52:54;33.70;;;17.70;;
57295;SDS011;43146;50.976;18.216;2024-02-15T04:55:20;31.50;;;17.60;;
57295;SDS011;43146;50.976;18.216;2024-02-15T04:57:48;35.30;;;18.90;;
57295;SDS011;43146;50.976;18.216;2024-02-15T05:00:21;39.70;;;28.60;;
57295;SDS011;43146;50.976;18.216;2024-02-15T05:02:48;29.50;;;15.20;;
57295;SDS011;43146;50.976;18.216;2024-02-15T05:05:14;32.90;;;16.40;;
57295;SDS011;43146;50.976;18.216;2024-02-15T05:07:41;35.90;;;19.50;;
57295;SDS011;43146;50.976;18.216;2024-02-15T05:10:08;30.50;;;16.10;;
57295;SDS011;43146;50.976;18.216;2024-02-15T05:12:34;44.00;;;26.00;;
57295;SDS011;43146;50.976;18.216;2024-02-15T05:15:01;55.30;;;33.50;;
57295;SDS011;43146;50.976;18.216;2024-02-15T05:17:27;28.30;;;15.30;;
57295;SDS011;43146;50.976;18.216;2024-02-15T05:19:56;27.40;;;14.30;;
57295;SDS011;43146;50.976;18.216;2024-02-15T05:22:25;28.40;;;14.70;;
57295;SDS011;43146;50.976;18.216;2024-02-15T05:24:54;30.10;;;14.80;;
57295;SDS011;43146;50.976;18.216;2024-02-15T05:27:20;35.20;;;17.30;;
57295;SDS011;43146;50.976;18.216;2024-02-15T05:29:46;31.10;;;16.00;;
57295;SDS011;43146;50.976;18.216;2024-02-15T05:32:12;31.10;;;16.90;;
57295;SDS011;43146;50.976;18.216;2024-02-15T05:34:40;34.00;;;16.40;;
57295;SDS011;43146;50.976;18.216;2024-02-15T05:37:05;36.90;;;17.10;;
57295;SDS011;43146;50.976;18.216;2024-02-15T05:39:32;35.40;;;17.10;;
57295;SDS011;43146;50.976;18.216;2024-02-15T05:41:57;30.70;;;18.00;;
57295;SDS011;43146;50.976;18.216;2024-02-15T05:44:26;34.90;;;18.30;;
57295;SDS011;43146;50.976;18.216;2024-02-15T05:46:52;32.70;;;16.50;;
57295;SDS011;43146;50.976;18.216;2024-02-15T05:49:17;32.50;;;16.90;;
57295;SDS011;43146;50.976;18.216;2024-02-15T05:51:44;31.20;;;17.10;;
57295;SDS011;43146;50.976;18.216;2024-02-15T05:54:10;38.70;;;20.60;;
57295;SDS011;43146;50.976;18.216;2024-02-15T05:56:36;49.00;;;22.40;;
57295;SDS011;43146;50.976;18.216;2024-02-15T05:59:02;40.30;;;20.90;;
57295;SDS011;43146;50.976;18.216;2024-02-15T06:01:35;37.20;;;17.60;;
57295;SDS011;43146;50.976;18.216;2024-02-15T06:04:02;38.90;;;18.50;;
57295;SDS011;43146;50.976;18.216;2024-02-15T06:06:30;37.20;;;20.00;;
57295;SDS011;43146;50.976;18.216;2024-02-15T06:08:56;42.10;;;22.00;;
57295;SDS011;43146;50.976;18.216;2024-02-15T06:11:25;37.50;;;20.70;;
57295;SDS011;43146;50.976;18.216;2024-02-15T06:13:50;49.10;;;26.80;;
57295;SDS011;43146;50.976;18.216;2024-02-15T06:16:16;43.30;;;26.00;;
57295;SDS011;43146;50.976;18.216;2024-02-15T06:18:41;47.40;;;27.80;;
57295;SDS011;43146;50.976;18.216;2024-02-15T06:21:07;42.00;;;18.10;;
57295;SDS011;43146;50.976;18.216;2024-02-15T06:23:34;36.50;;;18.80;;
57295;SDS011;43146;50.976;18.216;2024-02-15T06:26:01;395.80;;;119.80;;
57295;SDS011;43146;50.976;18.216;2024-02-15T06:28:28;35.30;;;19.70;;
57295;SDS011;43146;50.976;18.216;2024-02-15T06:31:12;40.30;;;22.80;;
57295;SDS011;43146;50.976;18.216;2024-02-15T06:33:57;35.50;;;19.40;;
57295;SDS011;43146;50.976;18.216;2024-02-15T06:36:48;42.80;;;23.20;;
57295;SDS011;43146;50.976;18.216;2024-02-15T06:39:33;34.70;;;18.00;;
57295;SDS011;43146;50.976;18.216;2024-02-15T06:42:14;111.60;;;46.40;;
57295;SDS011;43146;50.976;18.216;2024-02-15T06:44:45;87.70;;;38.70;;
57295;SDS011;43146;50.976;18.216;2024-02-15T06:47:12;39.90;;;20.00;;
57295;SDS011;43146;50.976;18.216;2024-02-15T06:49:38;49.90;;;25.50;;
57295;SDS011;43146;50.976;18.216;2024-02-15T06:52:09;40.60;;;20.20;;
57295;SDS011;43146;50.976;18.216;2024-02-15T06:54:40;96.30;;;34.50;;
57295;SDS011;43146;50.976;18.216;2024-02-15T06:57:06;157.30;;;76.70;;
57295;SDS011;43146;50.976;18.216;2024-02-15T06:59:32;65.00;;;47.50;;
57295;SDS011;43146;50.976;18.216;2024-02-15T07:02:02;36.80;;;21.20;;
57295;SDS011;43146;50.976;18.216;2024-02-15T07:04:30;40.70;;;20.80;;
57295;SDS011;43146;50.976;18.216;2024-02-15T07:06:57;30.50;;;17.50;;
57295;SDS011;43146;50.976;18.216;2024-02-15T07:09:23;32.50;;;17.70;;
57295;SDS011;43146;50.976;18.216;2024-02-15T07:11:50;32.20;;;16.80;;
57295;SDS011;43146;50.976;18.216;2024-02-15T07:14:16;35.00;;;17.00;;
57295;SDS011;43146;50.976;18.216;2024-02-15T07:16:50;36.10;;;22.30;;
57295;SDS011;43146;50.976;18.216;2024-02-15T07:19:16;33.00;;;17.00;;
57295;SDS011;43146;50.976;18.216;2024-02-15T07:21:43;31.70;;;17.30;;
57295;SDS011;43146;50.976;18.216;2024-02-15T07:24:09;35.30;;;20.00;;
57295;SDS011;43146;50.976;18.216;2024-02-15T07:26:35;37.60;;;19.50;;
57295;SDS011;43146;50.976;18.216;2024-02-15T07:29:01;39.70;;;20.40;;
57295;SDS011;43146;50.976;18.216;2024-02-15T07:31:31;43.30;;;22.90;;
57295;SDS011;43146;50.976;18.216;2024-02-15T07:33:58;36.30;;;18.60;;
57295;SDS011;43146;50.976;18.216;2024-02-15T07:36:24;33.40;;;17.50;;
57295;SDS011;43146;50.976;18.216;2024-02-15T07:38:51;33.90;;;18.50;;
57295;SDS011;43146;50.976;18.216;2024-02-15T07:41:18;36.20;;;20.00;;
57295;SDS011;43146;50.976;18.216;2024-02-15T07:43:51;75.40;;;32.90;;
57295;SDS011;43146;50.976;18.216;2024-02-15T07:46:20;36.40;;;19.30;;
57295;SDS011;43146;50.976;18.216;2024-02-15T07:48:49;34.70;;;19.70;;
57295;SDS011;43146;50.976;18.216;2024-02-15T07:51:15;33.40;;;20.60;;
57295;SDS011;43146;50.976;18.216;2024-02-15T07:53:43;34.80;;;19.50;;
57295;SDS011;43146;50.976;18.216;2024-02-15T07:56:09;44.40;;;27.70;;
57295;SDS011;43146;50.976;18.216;2024-02-15T07:58:42;32.50;;;17.40;;
57295;SDS011;43146;50.976;18.216;2024-02-15T08:01:12;62.00;;;32.50;;
57295;SDS011;43146;50.976;18.216;2024-02-15T08:03:38;44.70;;;26.60;;
57295;SDS011;43146;50.976;18.216;2024-02-15T08:06:12;30.50;;;16.90;;
57295;SDS011;43146;50.976;18.216;2024-02-15T08:08:43;43.10;;;21.30;;
57295;SDS011;43146;50.976;18.216;2024-02-15T08:11:11;69.30;;;36.10;;
57295;SDS011;43146;50.976;18.216;2024-02-15T08:13:43;37.90;;;20.70;;
57295;SDS011;43146;50.976;18.216;2024-02-15T08:16:10;32.50;;;19.20;;
57295;SDS011;43146;50.976;18.216;2024-02-15T08:18:37;27.40;;;15.40;;
57295;SDS011;43146;50.976;18.216;2024-02-15T08:21:03;28.50;;;13.80;;
57295;SDS011;43146;50.976;18.216;2024-02-15T08:23:30;27.00;;;13.90;;
57295;SDS011;43146;50.976;18.216;2024-02-15T08:25:55;28.30;;;14.60;;
57295;SDS011;43146;50.976;18.216;2024-02-15T08:28:23;29.70;;;15.20;;
57295;SDS011;43146;50.976;18.216;2024-02-15T08:30:48;28.10;;;14.80;;
57295;SDS011;43146;50.976;18.216;2024-02-15T08:33:14;29.00;;;16.80;;
57295;SDS011;43146;50.976;18.216;2024-02-15T08:35:39;31.70;;;17.40;;
57295;SDS011;43146;50.976;18.216;2024-02-15T08:38:06;27.20;;;14.90;;
57295;SDS011;43146;50.976;18.216;2024-02-15T08:40:32;27.80;;;15.90;;
57295;SDS011;43146;50.976;18.216;2024-02-15T08:42:58;31.90;;;16.40;;
57295;SDS011;43146;50.976;18.216;2024-02-15T08:45:23;27.30;;;15.20;;
57295;SDS011;43146;50.976;18.216;2024-02-15T08:47:49;28.10;;;14.90;;
57295;SDS011;43146;50.976;18.216;2024-02-15T08:50:18;26.80;;;13.30;;
57295;SDS011;43146;50.976;18.216;2024-02-15T08:52:44;29.30;;;15.90;;
57295;SDS011;43146;50.976;18.216;2024-02-15T08:55:10;53.10;;;31.20;;
57295;SDS011;43146;50.976;18.216;2024-02-15T08:57:39;24.60;;;13.30;;
57295;SDS011;43146;50.976;18.216;2024-02-15T09:00:06;28.40;;;15.80;;
57295;SDS011;43146;50.976;18.216;2024-02-15T09:02:45;61.30;;;38.80;;
57295;SDS011;43146;50.976;18.216;2024-02-15T09:05:11;24.60;;;13.40;;
57295;SDS011;43146;50.976;18.216;2024-02-15T09:07:44;28.30;;;15.40;;
57295;SDS011;43146;50.976;18.216;2024-02-15T09:10:13;27.70;;;15.30;;
57295;SDS011;43146;50.976;18.216;2024-02-15T09:12:40;33.80;;;20.20;;
57295;SDS011;43146;50.976;18.216;2024-02-15T09:15:08;26.90;;;16.80;;
57295;SDS011;43146;50.976;18.216;2024-02-15T09:17:34;30.70;;;19.70;;
57295;SDS011;43146;50.976;18.216;2024-02-15T09:20:07;26.20;;;15.70;;
57295;SDS011;43146;50.976;18.216;2024-02-15T09:25:14;36.70;;;19.70;;
57295;SDS011;43146;50.976;18.216;2024-02-15T09:27:41;51.20;;;24.10;;
57295;SDS011;43146;50.976;18.216;2024-02-15T09:30:07;35.20;;;19.10;;
57295;SDS011;43146;50.976;18.216;2024-02-15T09:32:37;56.10;;;26.10;;
57295;SDS011;43146;50.976;18.216;2024-02-15T09:35:03;38.00;;;19.10;;
57295;SDS011;43146;50.976;18.216;2024-02-15T09:37:35;142.70;;;44.10;;
57295;SDS011;43146;50.976;18.216;2024-02-15T09:40:02;56.90;;;28.40;;
57295;SDS011;43146;50.976;18.216;2024-02-15T09:42:32;47.00;;;22.80;;
57295;SDS011;43146;50.976;18.216;2024-02-15T09:45:01;39.90;;;20.40;;
57295;SDS011;43146;50.976;18.216;2024-02-15T09:47:35;44.40;;;22.80;;
57295;SDS011;43146;50.976;18.216;2024-02-15T09:50:09;49.50;;;28.70;;
57295;SDS011;43146;50.976;18.216;2024-02-15T09:52:38;44.30;;;26.60;;
57295;SDS011;43146;50.976;18.216;2024-02-15T09:55:06;32.30;;;19.70;;
57295;SDS011;43146;50.976;18.216;2024-02-15T09:57:38;39.90;;;25.40;;
57295;SDS011;43146;50.976;18.216;2024-02-15T10:00:05;33.90;;;22.70;;
57295;SDS011;43146;50.976;18.216;2024-02-15T10:02:33;27.30;;;16.90;;
57295;SDS011;43146;50.976;18.216;2024-02-15T10:05:02;32.10;;;19.40;;
57295;SDS011;43146;50.976;18.216;2024-02-15T10:07:28;33.50;;;19.50;;
57295;SDS011;43146;50.976;18.216;2024-02-15T10:09:54;40.30;;;25.70;;
57295;SDS011;43146;50.976;18.216;2024-02-15T10:12:19;30.30;;;19.50;;
57295;SDS011;43146;50.976;18.216;2024-02-15T10:14:50;26.10;;;16.40;;
57295;SDS011;43146;50.976;18.216;2024-02-15T10:17:18;22.00;;;11.60;;
57295;SDS011;43146;50.976;18.216;2024-02-15T10:20:02;25.70;;;12.30;;
57295;SDS011;43146;50.976;18.216;2024-02-15T10:22:29;20.50;;;11.90;;
57295;SDS011;43146;50.976;18.216;2024-02-15T10:25:13;21.20;;;12.00;;
57295;SDS011;43146;50.976;18.216;2024-02-15T10:27:40;20.20;;;10.60;;
57295;SDS011;43146;50.976;18.216;2024-02-15T10:30:27;21.00;;;10.40;;
57295;SDS011;43146;50.976;18.216;2024-02-15T10:32:52;21.30;;;10.50;;
57295;SDS011;43146;50.976;18.216;2024-02-15T10:35:23;19.80;;;9.40;;
57295;SDS011;43146;50.976;18.216;2024-02-15T10:37:49;21.30;;;10.30;;
57295;SDS011;43146;50.976;18.216;2024-02-15T10:40:19;69.70;;;29.00;;
57295;SDS011;43146;50.976;18.216;2024-02-15T10:42:50;43.40;;;21.60;;
57295;SDS011;43146;50.976;18.216;2024-02-15T10:45:17;32.50;;;19.90;;
57295;SDS011;43146;50.976;18.216;2024-02-15T10:47:45;29.10;;;17.70;;
57295;SDS011;43146;50.976;18.216;2024-02-15T10:50:14;31.80;;;19.80;;
57295;SDS011;43146;50.976;18.216;2024-02-15T10:52:43;23.60;;;13.20;;
57295;SDS011;43146;50.976;18.216;2024-02-15T10:55:25;113.90;;;52.90;;
57295;SDS011;43146;50.976;18.216;2024-02-15T10:58:06;86.40;;;45.00;;
57295;SDS011;43146;50.976;18.216;2024-02-15T11:00:33;98.50;;;55.60;;
57295;SDS011;43146;50.976;18.216;2024-02-15T11:03:07;51.60;;;30.70;;
57295;SDS011;43146;50.976;18.216;2024-02-15T11:05:34;43.10;;;26.30;;
57295;SDS011;43146;50.976;18.216;2024-02-15T11:08:06;27.00;;;16.20;;
57295;SDS011;43146;50.976;18.216;2024-02-15T11:10:36;35.70;;;22.80;;
57295;SDS011;43146;50.976;18.216;2024-02-15T11:13:03;45.70;;;29.40;;
57295;SDS011;43146;50.976;18.216;2024-02-15T11:18:00;21.60;;;10.50;;
57295;SDS011;43146;50.976;18.216;2024-02-15T11:23:01;25.50;;;13.70;;
57295;SDS011;43146;50.976;18.216;2024-02-15T11:25:34;20.90;;;10.80;;
57295;SDS011;43146;50.976;18.216;2024-02-15T11:30:50;20.80;;;11.40;;
57295;SDS011;43146;50.976;18.216;2024-02-15T11:33:37;18.70;;;8.50;;
57295;SDS011;43146;50.976;18.216;2024-02-15T11:36:08;20.20;;;8.00;;
57295;SDS011;43146;50.976;18.216;2024-02-15T11:38:35;19.50;;;8.10;;
57295;SDS011;43146;50.976;18.216;2024-02-15T11:41:02;15.10;;;7.60;;
57295;SDS011;43146;50.976;18.216;2024-02-15T11:46:17;17.30;;;8.30;;
57295;SDS011;43146;50.976;18.216;2024-02-15T11:48:53;15.80;;;7.40;;
57295;SDS011;43146;50.976;18.216;2024-02-15T11:51:28;14.60;;;6.80;;
57295;SDS011;43146;50.976;18.216;2024-02-15T11:54:02;12.70;;;5.80;;
57295;SDS011;43146;50.976;18.216;2024-02-15T11:56:34;16.00;;;7.70;;
57295;SDS011;43146;50.976;18.216;2024-02-15T11:59:17;23.00;;;12.30;;
57295;SDS011;43146;50.976;18.216;2024-02-15T12:01:57;20.00;;;9.30;;
57295;SDS011;43146;50.976;18.216;2024-02-15T12:04:42;16.30;;;7.80;;
57295;SDS011;43146;50.976;18.216;2024-02-15T12:07:27;16.10;;;7.80;;
57295;SDS011;43146;50.976;18.216;2024-02-15T12:10:18;14.50;;;7.00;;
57295;SDS011;43146;50.976;18.216;2024-02-15T12:13:03;16.00;;;7.00;;
57295;SDS011;43146;50.976;18.216;2024-02-15T12:15:58;13.70;;;6.50;;
57295;SDS011;43146;50.976;18.216;2024-02-15T12:18:43;14.40;;;6.50;;
57295;SDS011;43146;50.976;18.216;2024-02-15T12:21:11;18.50;;;8.70;;
57295;SDS011;43146;50.976;18.216;2024-02-15T12:23:48;15.30;;;6.10;;
57295;SDS011;43146;50.976;18.216;2024-02-15T12:26:18;29.50;;;13.90;;
57295;SDS011;43146;50.976;18.216;2024-02-15T12:28:49;32.80;;;18.10;;
57295;SDS011;43146;50.976;18.216;2024-02-15T12:31:16;43.50;;;31.50;;
57295;SDS011;43146;50.976;18.216;2024-02-15T12:33:42;28.50;;;23.80;;
57295;SDS011;43146;50.976;18.216;2024-02-15T12:36:08;18.20;;;10.40;;
57295;SDS011;43146;50.976;18.216;2024-02-15T12:38:34;20.40;;;12.40;;
57295;SDS011;43146;50.976;18.216;2024-02-15T12:41:03;17.70;;;9.60;;
57295;SDS011;43146;50.976;18.216;2024-02-15T12:43:43;27.70;;;16.50;;
57295;SDS011;43146;50.976;18.216;2024-02-15T12:46:09;15.70;;;8.50;;
57295;SDS011;43146;50.976;18.216;2024-02-15T12:48:34;20.70;;;12.40;;
57295;SDS011;43146;50.976;18.216;2024-02-15T12:51:12;17.50;;;8.20;;
57295;SDS011;43146;50.976;18.216;2024-02-15T12:53:39;17.50;;;7.90;;
57295;SDS011;43146;50.976;18.216;2024-02-15T12:56:07;16.20;;;8.40;;
57295;SDS011;43146;50.976;18.216;2024-02-15T12:58:34;21.40;;;11.20;;
57295;SDS011;43146;50.976;18.216;2024-02-15T13:01:00;20.70;;;12.00;;
57295;SDS011;43146;50.976;18.216;2024-02-15T13:03:27;19.00;;;11.90;;
57295;SDS011;43146;50.976;18.216;2024-02-15T13:05:53;14.40;;;7.60;;
57295;SDS011;43146;50.976;18.216;2024-02-15T13:08:19;12.90;;;5.80;;
57295;SDS011;43146;50.976;18.216;2024-02-15T13:10:45;14.70;;;7.90;;
57295;SDS011;43146;50.976;18.216;2024-02-15T13:13:12;49.30;;;21.90;;
57295;SDS011;43146;50.976;18.216;2024-02-15T13:15:41;32.60;;;16.40;;
57295;SDS011;43146;50.976;18.216;2024-02-15T13:18:08;13.50;;;6.50;;
57295;SDS011;43146;50.976;18.216;2024-02-15T13:20:38;13.20;;;6.10;;
57295;SDS011;43146;50.976;18.216;2024-02-15T13:23:05;14.50;;;6.20;;
57295;SDS011;43146;50.976;18.216;2024-02-15T13:25:38;16.20;;;7.60;;
57295;SDS011;43146;50.976;18.216;2024-02-15T13:28:05;15.30;;;6.70;;
57295;SDS011;43146;50.976;18.216;2024-02-15T13:30:31;11.70;;;5.50;;
57295;SDS011;43146;50.976;18.216;2024-02-15T13:32:57;21.00;;;10.40;;
57295;SDS011;43146;50.976;18.216;2024-02-15T13:35:23;21.70;;;11.70;;
57295;SDS011;43146;50.976;18.216;2024-02-15T13:37:50;24.00;;;14.00;;
57295;SDS011;43146;50.976;18.216;2024-02-15T13:40:19;29.20;;;17.00;;
57295;SDS011;43146;50.976;18.216;2024-02-15T13:42:49;13.90;;;6.60;;
57295;SDS011;43146;50.976;18.216;2024-02-15T13:45:39;14.50;;;7.10;;
57295;SDS011;43146;50.976;18.216;2024-02-15T13:48:06;13.70;;;7.20;;
57295;SDS011;43146;50.976;18.216;2024-02-15T13:50:34;22.20;;;13.60;;
57295;SDS011;43146;50.976;18.216;2024-02-15T13:52:59;13.40;;;6.60;;
57295;SDS011;43146;50.976;18.216;2024-02-15T13:55:25;17.00;;;8.20;;
57295;SDS011;43146;50.976;18.216;2024-02-15T13:57:51;26.90;;;14.20;;
57295;SDS011;43146;50.976;18.216;2024-02-15T14:00:17;48.30;;;27.60;;
57295;SDS011;43146;50.976;18.216;2024-02-15T14:02:50;41.40;;;25.00;;
57295;SDS011;43146;50.976;18.216;2024-02-15T14:05:17;21.70;;;10.60;;
57295;SDS011;43146;50.976;18.216;2024-02-15T14:07:49;33.50;;;24.00;;
57295;SDS011;43146;50.976;18.216;2024-02-15T14:10:17;18.60;;;8.80;;
57295;SDS011;43146;50.976;18.216;2024-02-15T14:12:46;19.20;;;10.30;;
57295;SDS011;43146;50.976;18.216;2024-02-15T14:15:14;22.40;;;11.20;;
57295;SDS011;43146;50.976;18.216;2024-02-15T14:17:40;17.40;;;7.70;;
57295;SDS011;43146;50.976;18.216;2024-02-15T14:20:06;19.90;;;10.80;;
57295;SDS011;43146;50.976;18.216;2024-02-15T14:22:39;21.20;;;11.60;;
57295;SDS011;43146;50.976;18.216;2024-02-15T14:25:05;23.70;;;13.70;;
57295;SDS011;43146;50.976;18.216;2024-02-15T14:27:32;21.40;;;11.20;;
57295;SDS011;43146;50.976;18.216;2024-02-15T14:29:58;23.90;;;12.00;;